DLH633 EDDN-LIBD
Flight info
| Callsign | DLH633 |
|---|---|
| Flight time | N/A |
| Altitude | 41000 |
| Route | RODIS1C/10 RODIS L604 LAMSI DCT RADLY DCT AIOSA DCT BANAV |
| Aircraft | A359/H-SDE2E3GHIJ3J4J5LM1ORWXY/LB1D1 |
Departure
| Time | 2026-04-29 19:40 |
|---|---|
| Airport | Nuremberg Airport (EDDN) |
Arrival
| Time | N/A |
|---|---|
| Airport | Bari Karol Wojtyła International Airport (LIBD) |
| Time | Latitude | Longitude | Altitude | Speed | Heading |
|---|---|---|---|---|---|
| 2026-04-29 19:08 | 49.49539 | 11.07663 | 1033 ft | 0 kts | 188° |
| 2026-04-29 19:29 | 49.49540 | 11.07663 | 1033 ft | 1 kts | 188° |
| 2026-04-29 19:30 | 49.49553 | 11.07666 | 1032 ft | 3 kts | 185° |
| 2026-04-29 19:30 | 49.49573 | 11.07668 | 1032 ft | 3 kts | 179° |
| 2026-04-29 19:30 | 49.49594 | 11.07667 | 1036 ft | 3 kts | 174° |
| 2026-04-29 19:30 | 49.49611 | 11.07664 | 1036 ft | 1 kts | 173° |
| 2026-04-29 19:31 | 49.49613 | 11.07663 | 1036 ft | 0 kts | 173° |
| 2026-04-29 19:34 | 49.49602 | 11.07680 | 1036 ft | 4 kts | 121° |
| 2026-04-29 19:34 | 49.49596 | 11.07734 | 1036 ft | 5 kts | 79° |
| 2026-04-29 19:35 | 49.49613 | 11.07755 | 1037 ft | 3 kts | 32° |
| 2026-04-29 19:35 | 49.49623 | 11.07755 | 1037 ft | 1 kts | 353° |
| 2026-04-29 19:35 | 49.49633 | 11.07758 | 1037 ft | 12 kts | 7° |
| 2026-04-29 19:35 | 49.49685 | 11.07701 | 1038 ft | 9 kts | 288° |
| 2026-04-29 19:36 | 49.49700 | 11.07593 | 1038 ft | 12 kts | 278° |
| 2026-04-29 19:36 | 49.49714 | 11.07438 | 1035 ft | 17 kts | 277° |
| 2026-04-29 19:36 | 49.49733 | 11.07231 | 1029 ft | 21 kts | 279° |
| 2026-04-29 19:36 | 49.49755 | 11.07030 | 1026 ft | 18 kts | 278° |
| 2026-04-29 19:37 | 49.49775 | 11.06820 | 1020 ft | 22 kts | 277° |
| 2026-04-29 19:37 | 49.49783 | 11.06741 | 1022 ft | 23 kts | 280° |
| 2026-04-29 19:37 | 49.49822 | 11.06348 | 1022 ft | 16 kts | 278° |
| 2026-04-29 19:37 | 49.49840 | 11.06166 | 1023 ft | 19 kts | 278° |
| 2026-04-29 19:38 | 49.49851 | 11.06061 | 1025 ft | 12 kts | 285° |
| 2026-04-29 19:38 | 49.49867 | 11.06014 | 1023 ft | 7 kts | 307° |
| 2026-04-29 19:38 | 49.49895 | 11.05983 | 1023 ft | 8 kts | 329° |
| 2026-04-29 19:39 | 49.49993 | 11.05938 | 1020 ft | 14 kts | 7° |
| 2026-04-29 19:39 | 49.50035 | 11.06005 | 1021 ft | 13 kts | 74° |
| 2026-04-29 19:39 | 49.50038 | 11.06070 | 1022 ft | 0 kts | 93° |
| 2026-04-29 19:39 | 49.50012 | 11.06369 | 1024 ft | 75 kts | 99° |
| 2026-04-29 19:40 | 49.49884 | 11.07645 | 1098 ft | 156 kts | 97° |
| 2026-04-29 19:40 | 49.49715 | 11.09342 | 2167 ft | 161 kts | 97° |
| 2026-04-29 19:40 | 49.49551 | 11.11062 | 3497 ft | 163 kts | 97° |
| 2026-04-29 19:40 | 49.49391 | 11.12788 | 4822 ft | 160 kts | 96° |
| 2026-04-29 19:41 | 49.49232 | 11.14459 | 6081 ft | 159 kts | 96° |
| 2026-04-29 19:41 | 49.49054 | 11.16262 | 6802 ft | 187 kts | 96° |
| 2026-04-29 19:41 | 49.48833 | 11.18503 | 7009 ft | 239 kts | 96° |
| 2026-04-29 19:41 | 49.48557 | 11.21307 | 6996 ft | 291 kts | 97° |
| 2026-04-29 19:42 | 49.48252 | 11.24363 | 6974 ft | 276 kts | 96° |
| 2026-04-29 19:42 | 49.48147 | 11.26269 | 6970 ft | 265 kts | 90° |
| 2026-04-29 19:42 | 49.48097 | 11.29953 | 6975 ft | 258 kts | 88° |
| 2026-04-29 19:42 | 49.48084 | 11.32698 | 7244 ft | 255 kts | 88° |
| 2026-04-29 19:43 | 49.48072 | 11.35466 | 7385 ft | 260 kts | 89° |
| 2026-04-29 19:43 | 49.48047 | 11.38260 | 7384 ft | 261 kts | 89° |
| 2026-04-29 19:43 | 49.48022 | 11.41051 | 7377 ft | 261 kts | 89° |
| 2026-04-29 19:43 | 49.47997 | 11.43842 | 7382 ft | 261 kts | 89° |